sensor_id;sensor_type;location;lat;lon;timestamp;P1;durP1;ratioP1;P2;durP2;ratioP2
28245;SDS011;15510;52.512;13.300;2024-02-16T00:01:20;5.05;;;3.08;;
28245;SDS011;15510;52.512;13.300;2024-02-16T00:03:49;4.20;;;3.47;;
28245;SDS011;15510;52.512;13.300;2024-02-16T00:06:14;3.80;;;3.10;;
28245;SDS011;15510;52.512;13.300;2024-02-16T00:08:41;3.78;;;3.47;;
28245;SDS011;15510;52.512;13.300;2024-02-16T00:11:06;4.10;;;3.03;;
28245;SDS011;15510;52.512;13.300;2024-02-16T00:13:32;4.90;;;3.13;;
28245;SDS011;15510;52.512;13.300;2024-02-16T00:16:00;4.88;;;3.15;;
28245;SDS011;15510;52.512;13.300;2024-02-16T00:18:26;3.83;;;3.40;;
28245;SDS011;15510;52.512;13.300;2024-02-16T00:20:52;3.25;;;2.95;;
28245;SDS011;15510;52.512;13.300;2024-02-16T00:23:18;3.92;;;3.38;;
28245;SDS011;15510;52.512;13.300;2024-02-16T00:25:47;4.63;;;3.85;;
28245;SDS011;15510;52.512;13.300;2024-02-16T00:28:13;4.57;;;3.33;;
28245;SDS011;15510;52.512;13.300;2024-02-16T00:30:39;4.13;;;3.70;;
28245;SDS011;15510;52.512;13.300;2024-02-16T00:33:06;5.70;;;4.15;;
28245;SDS011;15510;52.512;13.300;2024-02-16T00:35:32;5.47;;;4.45;;
28245;SDS011;15510;52.512;13.300;2024-02-16T00:37:59;5.03;;;4.28;;
28245;SDS011;15510;52.512;13.300;2024-02-16T00:40:25;4.40;;;4.00;;
28245;SDS011;15510;52.512;13.300;2024-02-16T00:42:51;5.43;;;4.90;;
28245;SDS011;15510;52.512;13.300;2024-02-16T00:45:17;6.10;;;5.05;;
28245;SDS011;15510;52.512;13.300;2024-02-16T00:47:43;6.88;;;5.47;;
28245;SDS011;15510;52.512;13.300;2024-02-16T00:50:13;8.07;;;5.43;;
28245;SDS011;15510;52.512;13.300;2024-02-16T00:52:40;7.25;;;5.45;;
28245;SDS011;15510;52.512;13.300;2024-02-16T00:55:06;5.90;;;5.30;;
28245;SDS011;15510;52.512;13.300;2024-02-16T00:57:32;7.25;;;6.10;;
28245;SDS011;15510;52.512;13.300;2024-02-16T01:00:03;8.23;;;6.20;;
28245;SDS011;15510;52.512;13.300;2024-02-16T01:02:30;8.43;;;6.05;;
28245;SDS011;15510;52.512;13.300;2024-02-16T01:04:57;7.55;;;6.07;;
28245;SDS011;15510;52.512;13.300;2024-02-16T01:07:27;6.18;;;5.57;;
28245;SDS011;15510;52.512;13.300;2024-02-16T01:09:53;7.60;;;6.78;;
28245;SDS011;15510;52.512;13.300;2024-02-16T01:12:19;8.27;;;6.60;;
28245;SDS011;15510;52.512;13.300;2024-02-16T01:14:48;8.77;;;6.88;;
28245;SDS011;15510;52.512;13.300;2024-02-16T01:17:14;9.48;;;7.15;;
28245;SDS011;15510;52.512;13.300;2024-02-16T01:19:43;9.30;;;6.88;;
28245;SDS011;15510;52.512;13.300;2024-02-16T01:22:09;9.50;;;7.05;;
28245;SDS011;15510;52.512;13.300;2024-02-16T01:24:35;11.77;;;7.22;;
28245;SDS011;15510;52.512;13.300;2024-02-16T01:27:00;13.05;;;7.72;;
28245;SDS011;15510;52.512;13.300;2024-02-16T01:29:26;8.82;;;7.25;;
28245;SDS011;15510;52.512;13.300;2024-02-16T01:31:52;11.57;;;7.43;;
28245;SDS011;15510;52.512;13.300;2024-02-16T01:34:18;9.40;;;7.97;;
28245;SDS011;15510;52.512;13.300;2024-02-16T01:36:44;9.05;;;7.30;;
28245;SDS011;15510;52.512;13.300;2024-02-16T01:39:09;13.20;;;7.90;;
28245;SDS011;15510;52.512;13.300;2024-02-16T01:41:38;12.15;;;8.90;;
28245;SDS011;15510;52.512;13.300;2024-02-16T01:44:05;9.50;;;8.40;;
28245;SDS011;15510;52.512;13.300;2024-02-16T01:46:31;11.50;;;8.57;;
28245;SDS011;15510;52.512;13.300;2024-02-16T01:48:58;9.52;;;8.27;;
28245;SDS011;15510;52.512;13.300;2024-02-16T01:51:25;11.07;;;9.15;;
28245;SDS011;15510;52.512;13.300;2024-02-16T01:53:51;10.73;;;8.45;;
28245;SDS011;15510;52.512;13.300;2024-02-16T01:56:19;12.48;;;9.40;;
28245;SDS011;15510;52.512;13.300;2024-02-16T01:58:47;12.27;;;8.85;;
28245;SDS011;15510;52.512;13.300;2024-02-16T02:01:21;13.10;;;9.43;;
28245;SDS011;15510;52.512;13.300;2024-02-16T02:03:47;10.70;;;9.13;;
28245;SDS011;15510;52.512;13.300;2024-02-16T02:06:13;12.38;;;9.68;;
28245;SDS011;15510;52.512;13.300;2024-02-16T02:08:39;13.73;;;10.13;;
28245;SDS011;15510;52.512;13.300;2024-02-16T02:11:06;12.32;;;9.75;;
28245;SDS011;15510;52.512;13.300;2024-02-16T02:13:32;13.25;;;9.82;;
28245;SDS011;15510;52.512;13.300;2024-02-16T02:15:58;13.27;;;10.18;;
28245;SDS011;15510;52.512;13.300;2024-02-16T02:18:29;12.90;;;9.45;;
28245;SDS011;15510;52.512;13.300;2024-02-16T02:20:55;13.00;;;9.70;;
28245;SDS011;15510;52.512;13.300;2024-02-16T02:23:27;15.85;;;10.25;;
28245;SDS011;15510;52.512;13.300;2024-02-16T02:25:53;14.82;;;9.63;;
28245;SDS011;15510;52.512;13.300;2024-02-16T02:28:19;13.55;;;10.30;;
28245;SDS011;15510;52.512;13.300;2024-02-16T02:30:45;13.95;;;10.07;;
28245;SDS011;15510;52.512;13.300;2024-02-16T02:33:11;11.93;;;9.45;;
28245;SDS011;15510;52.512;13.300;2024-02-16T02:35:39;14.38;;;10.40;;
28245;SDS011;15510;52.512;13.300;2024-02-16T02:38:05;12.60;;;10.07;;
28245;SDS011;15510;52.512;13.300;2024-02-16T02:40:32;14.82;;;10.13;;
28245;SDS011;15510;52.512;13.300;2024-02-16T02:42:57;12.85;;;9.98;;
28245;SDS011;15510;52.512;13.300;2024-02-16T02:45:23;14.95;;;10.43;;
28245;SDS011;15510;52.512;13.300;2024-02-16T02:47:50;14.38;;;10.30;;
28245;SDS011;15510;52.512;13.300;2024-02-16T02:50:17;12.88;;;10.27;;
28245;SDS011;15510;52.512;13.300;2024-02-16T02:52:43;10.45;;;8.80;;
28245;SDS011;15510;52.512;13.300;2024-02-16T02:55:10;14.82;;;10.80;;
28245;SDS011;15510;52.512;13.300;2024-02-16T02:57:36;12.35;;;9.90;;
28245;SDS011;15510;52.512;13.300;2024-02-16T03:00:06;13.63;;;10.25;;
28245;SDS011;15510;52.512;13.300;2024-02-16T03:02:36;13.85;;;10.60;;
28245;SDS011;15510;52.512;13.300;2024-02-16T03:05:04;13.57;;;10.70;;
28245;SDS011;15510;52.512;13.300;2024-02-16T03:07:33;15.75;;;10.65;;
28245;SDS011;15510;52.512;13.300;2024-02-16T03:09:59;15.15;;;10.30;;
28245;SDS011;15510;52.512;13.300;2024-02-16T03:12:25;17.52;;;10.07;;
28245;SDS011;15510;52.512;13.300;2024-02-16T03:14:51;13.02;;;10.02;;
28245;SDS011;15510;52.512;13.300;2024-02-16T03:17:17;14.77;;;10.35;;
28245;SDS011;15510;52.512;13.300;2024-02-16T03:19:43;14.38;;;10.68;;
28245;SDS011;15510;52.512;13.300;2024-02-16T03:22:12;13.15;;;10.40;;
28245;SDS011;15510;52.512;13.300;2024-02-16T03:24:38;15.50;;;10.63;;
28245;SDS011;15510;52.512;13.300;2024-02-16T03:27:03;15.65;;;11.43;;
28245;SDS011;15510;52.512;13.300;2024-02-16T03:29:31;14.65;;;9.90;;
28245;SDS011;15510;52.512;13.300;2024-02-16T03:31:58;15.07;;;10.63;;
28245;SDS011;15510;52.512;13.300;2024-02-16T03:34:24;12.75;;;10.50;;
28245;SDS011;15510;52.512;13.300;2024-02-16T03:36:49;18.45;;;11.18;;
28245;SDS011;15510;52.512;13.300;2024-02-16T03:39:18;14.63;;;10.43;;
28245;SDS011;15510;52.512;13.300;2024-02-16T03:41:45;15.85;;;10.80;;
28245;SDS011;15510;52.512;13.300;2024-02-16T03:44:17;14.55;;;10.07;;
28245;SDS011;15510;52.512;13.300;2024-02-16T03:46:46;12.85;;;10.23;;
28245;SDS011;15510;52.512;13.300;2024-02-16T03:49:12;13.15;;;11.25;;
28245;SDS011;15510;52.512;13.300;2024-02-16T03:51:38;12.43;;;10.20;;
28245;SDS011;15510;52.512;13.300;2024-02-16T03:54:03;17.25;;;10.27;;
28245;SDS011;15510;52.512;13.300;2024-02-16T03:56:29;16.45;;;11.07;;
28245;SDS011;15510;52.512;13.300;2024-02-16T03:58:56;14.50;;;11.63;;
28245;SDS011;15510;52.512;13.300;2024-02-16T04:01:21;16.15;;;10.95;;
28245;SDS011;15510;52.512;13.300;2024-02-16T04:03:47;16.38;;;10.73;;
28245;SDS011;15510;52.512;13.300;2024-02-16T04:06:13;15.00;;;10.37;;
28245;SDS011;15510;52.512;13.300;2024-02-16T04:08:39;13.52;;;10.38;;
28245;SDS011;15510;52.512;13.300;2024-02-16T04:11:05;14.20;;;10.65;;
28245;SDS011;15510;52.512;13.300;2024-02-16T04:13:31;14.98;;;11.00;;
28245;SDS011;15510;52.512;13.300;2024-02-16T04:15:57;16.35;;;11.60;;
28245;SDS011;15510;52.512;13.300;2024-02-16T04:18:23;11.63;;;9.70;;
28245;SDS011;15510;52.512;13.300;2024-02-16T04:20:49;14.32;;;10.60;;
28245;SDS011;15510;52.512;13.300;2024-02-16T04:23:15;14.63;;;10.27;;
28245;SDS011;15510;52.512;13.300;2024-02-16T04:25:40;13.55;;;9.88;;
28245;SDS011;15510;52.512;13.300;2024-02-16T04:28:06;14.68;;;10.75;;
28245;SDS011;15510;52.512;13.300;2024-02-16T04:30:32;14.35;;;10.15;;
28245;SDS011;15510;52.512;13.300;2024-02-16T04:32:58;13.85;;;10.82;;
28245;SDS011;15510;52.512;13.300;2024-02-16T04:35:23;14.80;;;10.90;;
28245;SDS011;15510;52.512;13.300;2024-02-16T04:37:49;14.07;;;9.38;;
28245;SDS011;15510;52.512;13.300;2024-02-16T04:40:15;13.75;;;10.70;;
28245;SDS011;15510;52.512;13.300;2024-02-16T04:42:41;13.40;;;10.40;;
28245;SDS011;15510;52.512;13.300;2024-02-16T04:45:10;13.43;;;10.18;;
28245;SDS011;15510;52.512;13.300;2024-02-16T04:47:37;14.32;;;11.23;;
28245;SDS011;15510;52.512;13.300;2024-02-16T04:50:04;16.17;;;10.30;;
28245;SDS011;15510;52.512;13.300;2024-02-16T04:52:30;15.75;;;11.07;;
28245;SDS011;15510;52.512;13.300;2024-02-16T04:54:56;12.65;;;9.85;;
28245;SDS011;15510;52.512;13.300;2024-02-16T04:57:22;14.95;;;10.35;;
28245;SDS011;15510;52.512;13.300;2024-02-16T04:59:47;12.73;;;10.05;;
28245;SDS011;15510;52.512;13.300;2024-02-16T05:02:13;12.98;;;9.85;;
28245;SDS011;15510;52.512;13.300;2024-02-16T05:04:39;14.68;;;10.23;;
28245;SDS011;15510;52.512;13.300;2024-02-16T05:07:08;13.00;;;10.05;;
28245;SDS011;15510;52.512;13.300;2024-02-16T05:09:35;12.73;;;9.90;;
28245;SDS011;15510;52.512;13.300;2024-02-16T05:12:00;17.17;;;10.30;;
28245;SDS011;15510;52.512;13.300;2024-02-16T05:14:27;14.93;;;10.05;;
28245;SDS011;15510;52.512;13.300;2024-02-16T05:16:53;17.77;;;11.00;;
28245;SDS011;15510;52.512;13.300;2024-02-16T05:19:19;14.30;;;9.97;;
28245;SDS011;15510;52.512;13.300;2024-02-16T05:21:45;14.35;;;9.77;;
28245;SDS011;15510;52.512;13.300;2024-02-16T05:24:14;15.07;;;10.30;;
28245;SDS011;15510;52.512;13.300;2024-02-16T05:26:40;15.33;;;10.57;;
28245;SDS011;15510;52.512;13.300;2024-02-16T05:29:06;14.15;;;9.60;;
28245;SDS011;15510;52.512;13.300;2024-02-16T05:31:31;14.23;;;9.37;;
28245;SDS011;15510;52.512;13.300;2024-02-16T05:33:59;17.63;;;9.60;;
28245;SDS011;15510;52.512;13.300;2024-02-16T05:36:25;12.00;;;9.23;;
28245;SDS011;15510;52.512;13.300;2024-02-16T05:38:53;14.68;;;9.43;;
28245;SDS011;15510;52.512;13.300;2024-02-16T05:41:31;11.20;;;9.32;;
28245;SDS011;15510;52.512;13.300;2024-02-16T05:43:56;13.80;;;8.90;;
28245;SDS011;15510;52.512;13.300;2024-02-16T05:46:22;12.23;;;9.27;;
28245;SDS011;15510;52.512;13.300;2024-02-16T05:48:48;14.77;;;9.07;;
28245;SDS011;15510;52.512;13.300;2024-02-16T05:51:14;11.93;;;9.20;;
28245;SDS011;15510;52.512;13.300;2024-02-16T05:53:40;11.55;;;8.23;;
28245;SDS011;15510;52.512;13.300;2024-02-16T05:56:09;11.50;;;8.03;;
28245;SDS011;15510;52.512;13.300;2024-02-16T05:58:35;14.18;;;8.63;;
28245;SDS011;15510;52.512;13.300;2024-02-16T06:01:01;13.50;;;8.00;;
28245;SDS011;15510;52.512;13.300;2024-02-16T06:03:26;11.80;;;8.32;;
28245;SDS011;15510;52.512;13.300;2024-02-16T06:05:52;12.27;;;8.40;;
28245;SDS011;15510;52.512;13.300;2024-02-16T06:08:20;10.80;;;8.60;;
28245;SDS011;15510;52.512;13.300;2024-02-16T06:10:46;11.67;;;8.60;;
28245;SDS011;15510;52.512;13.300;2024-02-16T06:13:26;13.32;;;8.25;;
28245;SDS011;15510;52.512;13.300;2024-02-16T06:15:52;11.80;;;8.05;;
28245;SDS011;15510;52.512;13.300;2024-02-16T06:18:17;13.20;;;8.67;;
28245;SDS011;15510;52.512;13.300;2024-02-16T06:20:44;12.02;;;8.30;;
28245;SDS011;15510;52.512;13.300;2024-02-16T06:23:10;12.83;;;9.13;;
28245;SDS011;15510;52.512;13.300;2024-02-16T06:25:38;12.73;;;8.80;;
28245;SDS011;15510;52.512;13.300;2024-02-16T06:28:04;10.98;;;7.75;;
28245;SDS011;15510;52.512;13.300;2024-02-16T06:30:30;13.27;;;8.77;;
28245;SDS011;15510;52.512;13.300;2024-02-16T06:32:55;11.80;;;8.13;;
28245;SDS011;15510;52.512;13.300;2024-02-16T06:35:22;12.00;;;8.48;;
28245;SDS011;15510;52.512;13.300;2024-02-16T06:37:50;15.00;;;8.77;;
28245;SDS011;15510;52.512;13.300;2024-02-16T06:40:16;14.45;;;8.93;;
28245;SDS011;15510;52.512;13.300;2024-02-16T06:42:43;11.27;;;7.80;;
28245;SDS011;15510;52.512;13.300;2024-02-16T06:45:11;13.50;;;8.10;;
28245;SDS011;15510;52.512;13.300;2024-02-16T06:47:37;15.40;;;8.73;;
28245;SDS011;15510;52.512;13.300;2024-02-16T06:50:03;13.27;;;8.45;;
28245;SDS011;15510;52.512;13.300;2024-02-16T06:52:29;13.48;;;8.88;;
28245;SDS011;15510;52.512;13.300;2024-02-16T06:54:55;11.77;;;8.20;;
28245;SDS011;15510;52.512;13.300;2024-02-16T06:57:21;13.05;;;8.52;;
28245;SDS011;15510;52.512;13.300;2024-02-16T06:59:46;10.83;;;8.23;;
28245;SDS011;15510;52.512;13.300;2024-02-16T07:02:12;12.90;;;8.83;;
28245;SDS011;15510;52.512;13.300;2024-02-16T07:04:40;11.98;;;8.02;;
28245;SDS011;15510;52.512;13.300;2024-02-16T07:07:06;12.55;;;8.30;;
28245;SDS011;15510;52.512;13.300;2024-02-16T07:09:32;12.18;;;8.45;;
28245;SDS011;15510;52.512;13.300;2024-02-16T07:11:58;10.75;;;8.18;;
28245;SDS011;15510;52.512;13.300;2024-02-16T07:14:23;10.48;;;7.68;;
28245;SDS011;15510;52.512;13.300;2024-02-16T07:16:49;12.32;;;7.88;;
28245;SDS011;15510;52.512;13.300;2024-02-16T07:19:15;9.57;;;7.70;;
28245;SDS011;15510;52.512;13.300;2024-02-16T07:21:42;14.30;;;7.80;;
28245;SDS011;15510;52.512;13.300;2024-02-16T07:24:09;13.02;;;8.30;;
28245;SDS011;15510;52.512;13.300;2024-02-16T07:26:35;13.70;;;8.55;;
28245;SDS011;15510;52.512;13.300;2024-02-16T07:29:01;15.77;;;8.40;;
28245;SDS011;15510;52.512;13.300;2024-02-16T07:31:33;11.57;;;7.95;;
28245;SDS011;15510;52.512;13.300;2024-02-16T07:34:03;11.93;;;8.40;;
28245;SDS011;15510;52.512;13.300;2024-02-16T07:36:29;11.43;;;8.13;;
28245;SDS011;15510;52.512;13.300;2024-02-16T07:38:55;10.60;;;7.95;;
28245;SDS011;15510;52.512;13.300;2024-02-16T07:41:21;12.15;;;7.18;;
28245;SDS011;15510;52.512;13.300;2024-02-16T07:43:46;12.48;;;8.10;;
28245;SDS011;15510;52.512;13.300;2024-02-16T07:46:12;14.90;;;8.98;;
28245;SDS011;15510;52.512;13.300;2024-02-16T07:48:38;10.65;;;7.68;;
28245;SDS011;15510;52.512;13.300;2024-02-16T07:51:05;15.60;;;8.40;;
28245;SDS011;15510;52.512;13.300;2024-02-16T07:53:35;9.32;;;7.07;;
28245;SDS011;15510;52.512;13.300;2024-02-16T07:56:01;11.70;;;8.07;;
28245;SDS011;15510;52.512;13.300;2024-02-16T07:58:27;14.45;;;7.60;;
28245;SDS011;15510;52.512;13.300;2024-02-16T08:00:52;11.70;;;7.97;;
28245;SDS011;15510;52.512;13.300;2024-02-16T08:03:20;11.70;;;7.72;;
28245;SDS011;15510;52.512;13.300;2024-02-16T08:05:46;12.20;;;8.38;;
28245;SDS011;15510;52.512;13.300;2024-02-16T08:08:12;10.02;;;7.70;;
28245;SDS011;15510;52.512;13.300;2024-02-16T08:10:37;9.00;;;7.00;;
28245;SDS011;15510;52.512;13.300;2024-02-16T08:13:03;10.77;;;7.38;;
28245;SDS011;15510;52.512;13.300;2024-02-16T08:15:29;9.88;;;7.30;;
28245;SDS011;15510;52.512;13.300;2024-02-16T08:17:56;10.57;;;7.57;;
28245;SDS011;15510;52.512;13.300;2024-02-16T08:20:22;10.80;;;7.53;;
28245;SDS011;15510;52.512;13.300;2024-02-16T08:22:48;9.43;;;7.00;;
28245;SDS011;15510;52.512;13.300;2024-02-16T08:25:14;9.27;;;6.72;;
28245;SDS011;15510;52.512;13.300;2024-02-16T08:27:39;9.10;;;6.78;;
28245;SDS011;15510;52.512;13.300;2024-02-16T08:30:06;10.45;;;6.50;;
28245;SDS011;15510;52.512;13.300;2024-02-16T08:32:34;9.05;;;6.85;;
28245;SDS011;15510;52.512;13.300;2024-02-16T08:35:03;11.77;;;5.93;;
28245;SDS011;15510;52.512;13.300;2024-02-16T08:37:29;6.88;;;5.80;;
28245;SDS011;15510;52.512;13.300;2024-02-16T08:39:55;11.85;;;5.88;;
28245;SDS011;15510;52.512;13.300;2024-02-16T08:42:20;7.15;;;5.80;;
28245;SDS011;15510;52.512;13.300;2024-02-16T08:44:47;6.88;;;5.70;;
28245;SDS011;15510;52.512;13.300;2024-02-16T08:47:13;9.65;;;6.05;;
28245;SDS011;15510;52.512;13.300;2024-02-16T08:49:39;7.78;;;5.68;;
28245;SDS011;15510;52.512;13.300;2024-02-16T08:52:07;8.40;;;5.57;;
28245;SDS011;15510;52.512;13.300;2024-02-16T08:54:33;6.70;;;5.53;;
28245;SDS011;15510;52.512;13.300;2024-02-16T08:56:59;7.22;;;5.30;;
28245;SDS011;15510;52.512;13.300;2024-02-16T08:59:25;5.50;;;4.85;;
28245;SDS011;15510;52.512;13.300;2024-02-16T09:01:51;7.82;;;5.05;;
28245;SDS011;15510;52.512;13.300;2024-02-16T09:04:17;8.20;;;4.75;;
28245;SDS011;15510;52.512;13.300;2024-02-16T09:06:43;6.10;;;4.80;;
28245;SDS011;15510;52.512;13.300;2024-02-16T09:09:09;9.23;;;4.80;;
28245;SDS011;15510;52.512;13.300;2024-02-16T09:11:35;7.85;;;5.03;;
28245;SDS011;15510;52.512;13.300;2024-02-16T09:14:01;9.27;;;5.82;;
28245;SDS011;15510;52.512;13.300;2024-02-16T09:16:27;9.75;;;4.80;;
28245;SDS011;15510;52.512;13.300;2024-02-16T09:18:53;5.65;;;4.82;;
28245;SDS011;15510;52.512;13.300;2024-02-16T09:21:19;7.28;;;5.03;;
28245;SDS011;15510;52.512;13.300;2024-02-16T09:23:45;5.50;;;4.55;;
28245;SDS011;15510;52.512;13.300;2024-02-16T09:26:11;13.60;;;4.70;;
28245;SDS011;15510;52.512;13.300;2024-02-16T09:28:40;8.25;;;4.53;;
28245;SDS011;15510;52.512;13.300;2024-02-16T09:31:13;6.53;;;4.60;;
28245;SDS011;15510;52.512;13.300;2024-02-16T09:33:39;8.88;;;4.40;;
28245;SDS011;15510;52.512;13.300;2024-02-16T09:36:06;6.18;;;4.25;;
28245;SDS011;15510;52.512;13.300;2024-02-16T09:38:32;6.45;;;4.30;;
28245;SDS011;15510;52.512;13.300;2024-02-16T09:40:58;5.53;;;3.85;;
28245;SDS011;15510;52.512;13.300;2024-02-16T09:43:28;8.23;;;4.28;;
28245;SDS011;15510;52.512;13.300;2024-02-16T09:45:55;15.10;;;4.28;;
28245;SDS011;15510;52.512;13.300;2024-02-16T09:48:22;6.30;;;3.97;;
28245;SDS011;15510;52.512;13.300;2024-02-16T09:50:51;5.45;;;3.40;;
28245;SDS011;15510;52.512;13.300;2024-02-16T09:53:20;4.72;;;3.50;;
28245;SDS011;15510;52.512;13.300;2024-02-16T09:55:48;5.28;;;3.60;;
28245;SDS011;15510;52.512;13.300;2024-02-16T09:58:14;6.25;;;3.20;;
28245;SDS011;15510;52.512;13.300;2024-02-16T10:00:50;4.68;;;3.60;;
28245;SDS011;15510;52.512;13.300;2024-02-16T10:03:24;4.80;;;3.78;;
28245;SDS011;15510;52.512;13.300;2024-02-16T10:06:06;13.38;;;4.43;;
28245;SDS011;15510;52.512;13.300;2024-02-16T10:08:55;6.07;;;3.92;;
28245;SDS011;15510;52.512;13.300;2024-02-16T10:11:27;5.57;;;3.83;;
28245;SDS011;15510;52.512;13.300;2024-02-16T10:13:59;6.90;;;3.78;;
28245;SDS011;15510;52.512;13.300;2024-02-16T10:16:30;8.88;;;3.85;;
28245;SDS011;15510;52.512;13.300;2024-02-16T10:18:56;7.43;;;3.72;;
28245;SDS011;15510;52.512;13.300;2024-02-16T10:21:32;5.50;;;3.65;;
28245;SDS011;15510;52.512;13.300;2024-02-16T10:24:04;5.32;;;3.58;;
28245;SDS011;15510;52.512;13.300;2024-02-16T10:26:33;4.72;;;3.50;;
28245;SDS011;15510;52.512;13.300;2024-02-16T10:29:08;13.45;;;4.50;;
28245;SDS011;15510;52.512;13.300;2024-02-16T10:31:37;6.22;;;3.90;;
28245;SDS011;15510;52.512;13.300;2024-02-16T10:34:04;4.22;;;3.38;;
28245;SDS011;15510;52.512;13.300;2024-02-16T10:36:31;5.70;;;3.70;;
28245;SDS011;15510;52.512;13.300;2024-02-16T10:39:02;6.40;;;3.28;;
28245;SDS011;15510;52.512;13.300;2024-02-16T10:41:34;4.63;;;3.60;;
28245;SDS011;15510;52.512;13.300;2024-02-16T10:44:03;7.72;;;3.80;;
28245;SDS011;15510;52.512;13.300;2024-02-16T10:46:30;6.93;;;3.90;;
28245;SDS011;15510;52.512;13.300;2024-02-16T10:48:57;6.63;;;4.05;;
28245;SDS011;15510;52.512;13.300;2024-02-16T10:51:25;5.90;;;3.60;;
28245;SDS011;15510;52.512;13.300;2024-02-16T10:53:56;5.25;;;4.10;;
28245;SDS011;15510;52.512;13.300;2024-02-16T10:56:42;5.90;;;3.97;;
28245;SDS011;15510;52.512;13.300;2024-02-16T10:59:09;4.85;;;3.75;;
28245;SDS011;15510;52.512;13.300;2024-02-16T11:04:05;6.93;;;4.45;;
28245;SDS011;15510;52.512;13.300;2024-02-16T11:06:45;7.28;;;4.03;;
28245;SDS011;15510;52.512;13.300;2024-02-16T11:09:22;7.47;;;3.63;;
28245;SDS011;15510;52.512;13.300;2024-02-16T11:11:55;5.63;;;4.00;;
28245;SDS011;15510;52.512;13.300;2024-02-16T11:14:33;6.22;;;3.88;;
28245;SDS011;15510;52.512;13.300;2024-02-16T11:17:14;4.45;;;3.47;;
28245;SDS011;15510;52.512;13.300;2024-02-16T11:19:46;6.75;;;4.30;;
28245;SDS011;15510;52.512;13.300;2024-02-16T11:22:18;5.68;;;3.85;;
28245;SDS011;15510;52.512;13.300;2024-02-16T11:24:46;6.25;;;4.20;;
28245;SDS011;15510;52.512;13.300;2024-02-16T11:27:15;7.97;;;3.63;;
28245;SDS011;15510;52.512;13.300;2024-02-16T11:29:44;4.57;;;3.55;;
28245;SDS011;15510;52.512;13.300;2024-02-16T11:32:11;7.18;;;3.67;;
28245;SDS011;15510;52.512;13.300;2024-02-16T11:34:37;3.72;;;3.25;;
28245;SDS011;15510;52.512;13.300;2024-02-16T11:37:04;4.22;;;2.92;;
28245;SDS011;15510;52.512;13.300;2024-02-16T11:39:32;5.05;;;3.60;;
28245;SDS011;15510;52.512;13.300;2024-02-16T11:42:09;6.10;;;3.28;;
28245;SDS011;15510;52.512;13.300;2024-02-16T11:44:39;5.95;;;3.17;;
28245;SDS011;15510;52.512;13.300;2024-02-16T11:47:05;4.95;;;3.05;;
28245;SDS011;15510;52.512;13.300;2024-02-16T11:49:40;5.10;;;3.10;;
28245;SDS011;15510;52.512;13.300;2024-02-16T11:52:06;7.32;;;3.72;;
28245;SDS011;15510;52.512;13.300;2024-02-16T11:54:32;6.65;;;3.60;;
28245;SDS011;15510;52.512;13.300;2024-02-16T11:56:58;5.45;;;3.40;;
28245;SDS011;15510;52.512;13.300;2024-02-16T11:59:33;4.60;;;3.20;;
28245;SDS011;15510;52.512;13.300;2024-02-16T12:01:59;2.97;;;2.60;;
28245;SDS011;15510;52.512;13.300;2024-02-16T12:04:31;2.65;;;2.28;;
28245;SDS011;15510;52.512;13.300;2024-02-16T12:06:57;3.88;;;2.70;;
28245;SDS011;15510;52.512;13.300;2024-02-16T12:09:28;3.20;;;2.10;;
28245;SDS011;15510;52.512;13.300;2024-02-16T12:11:55;3.08;;;2.00;;
28245;SDS011;15510;52.512;13.300;2024-02-16T12:14:21;4.82;;;2.03;;
28245;SDS011;15510;52.512;13.300;2024-02-16T12:16:51;2.55;;;2.35;;
28245;SDS011;15510;52.512;13.300;2024-02-16T12:19:20;2.58;;;2.13;;
28245;SDS011;15510;52.512;13.300;2024-02-16T12:21:54;4.72;;;1.73;;
28245;SDS011;15510;52.512;13.300;2024-02-16T12:24:24;3.33;;;1.92;;
28245;SDS011;15510;52.512;13.300;2024-02-16T12:26:52;3.33;;;2.45;;
28245;SDS011;15510;52.512;13.300;2024-02-16T12:29:19;2.15;;;1.83;;
28245;SDS011;15510;52.512;13.300;2024-02-16T12:31:45;4.05;;;2.20;;
28245;SDS011;15510;52.512;13.300;2024-02-16T12:34:14;3.00;;;2.22;;
28245;SDS011;15510;52.512;13.300;2024-02-16T12:36:40;3.92;;;2.00;;
28245;SDS011;15510;52.512;13.300;2024-02-16T12:39:07;4.53;;;2.45;;
28245;SDS011;15510;52.512;13.300;2024-02-16T12:41:37;3.35;;;2.20;;
28245;SDS011;15510;52.512;13.300;2024-02-16T12:44:04;3.55;;;1.85;;
28245;SDS011;15510;52.512;13.300;2024-02-16T12:46:31;3.00;;;2.20;;
28245;SDS011;15510;52.512;13.300;2024-02-16T12:48:57;2.97;;;2.30;;
28245;SDS011;15510;52.512;13.300;2024-02-16T12:51:23;2.50;;;1.55;;
28245;SDS011;15510;52.512;13.300;2024-02-16T12:53:49;4.20;;;1.27;;
28245;SDS011;15510;52.512;13.300;2024-02-16T12:56:14;2.47;;;1.70;;
28245;SDS011;15510;52.512;13.300;2024-02-16T12:58:40;2.60;;;1.80;;
28245;SDS011;15510;52.512;13.300;2024-02-16T13:01:06;2.13;;;1.55;;
28245;SDS011;15510;52.512;13.300;2024-02-16T13:03:35;2.50;;;1.60;;
28245;SDS011;15510;52.512;13.300;2024-02-16T13:06:02;1.83;;;1.40;;
28245;SDS011;15510;52.512;13.300;2024-02-16T13:08:28;5.10;;;2.10;;
28245;SDS011;15510;52.512;13.300;2024-02-16T13:10:55;3.58;;;1.50;;
28245;SDS011;15510;52.512;13.300;2024-02-16T13:13:21;5.03;;;2.00;;
28245;SDS011;15510;52.512;13.300;2024-02-16T13:15:47;2.00;;;1.50;;
28245;SDS011;15510;52.512;13.300;2024-02-16T13:18:13;9.02;;;1.98;;
28245;SDS011;15510;52.512;13.300;2024-02-16T13:20:39;2.72;;;1.85;;
28245;SDS011;15510;52.512;13.300;2024-02-16T13:23:05;4.65;;;1.83;;
28245;SDS011;15510;52.512;13.300;2024-02-16T13:25:31;2.92;;;1.83;;
28245;SDS011;15510;52.512;13.300;2024-02-16T13:27:57;2.05;;;1.38;;
28245;SDS011;15510;52.512;13.300;2024-02-16T13:30:22;2.10;;;1.40;;
28245;SDS011;15510;52.512;13.300;2024-02-16T13:32:48;2.97;;;1.30;;
28245;SDS011;15510;52.512;13.300;2024-02-16T13:35:14;2.22;;;1.40;;
28245;SDS011;15510;52.512;13.300;2024-02-16T13:37:40;4.95;;;1.50;;
28245;SDS011;15510;52.512;13.300;2024-02-16T13:40:08;2.70;;;1.70;;
28245;SDS011;15510;52.512;13.300;2024-02-16T13:42:38;2.28;;;1.50;;
28245;SDS011;15510;52.512;13.300;2024-02-16T13:45:05;2.38;;;1.33;;
28245;SDS011;15510;52.512;13.300;2024-02-16T13:47:31;3.30;;;1.45;;
28245;SDS011;15510;52.512;13.300;2024-02-16T13:49:57;3.35;;;1.30;;
28245;SDS011;15510;52.512;13.300;2024-02-16T13:52:24;3.55;;;1.50;;
28245;SDS011;15510;52.512;13.300;2024-02-16T13:54:51;2.78;;;1.58;;
28245;SDS011;15510;52.512;13.300;2024-02-16T13:57:17;2.35;;;1.35;;
28245;SDS011;15510;52.512;13.300;2024-02-16T13:59:43;3.00;;;1.67;;
28245;SDS011;15510;52.512;13.300;2024-02-16T14:02:09;1.73;;;1.60;;
28245;SDS011;15510;52.512;13.300;2024-02-16T14:04:35;3.72;;;1.25;;
28245;SDS011;15510;52.512;13.300;2024-02-16T14:07:02;1.77;;;1.30;;
28245;SDS011;15510;52.512;13.300;2024-02-16T14:09:27;3.33;;;1.42;;
28245;SDS011;15510;52.512;13.300;2024-02-16T14:11:53;5.05;;;1.30;;
28245;SDS011;15510;52.512;13.300;2024-02-16T14:14:21;1.40;;;1.25;;
28245;SDS011;15510;52.512;13.300;2024-02-16T14:16:47;3.85;;;1.63;;
28245;SDS011;15510;52.512;13.300;2024-02-16T14:19:13;1.85;;;1.13;;
28245;SDS011;15510;52.512;13.300;2024-02-16T14:21:39;1.30;;;1.13;;
28245;SDS011;15510;52.512;13.300;2024-02-16T14:24:05;1.45;;;0.90;;
28245;SDS011;15510;52.512;13.300;2024-02-16T14:26:30;1.73;;;1.30;;
28245;SDS011;15510;52.512;13.300;2024-02-16T14:28:56;3.25;;;1.17;;